Flight Track Log - Related Links

Times and Time Zones

All times are in EDT time to prevent confusion due to time zone crossing. See the SKQ45 flight status page for this flight to view local times or setup timezone preferences in your user account.

Time Position Orientation Groundspeed Altitude Reporting Facility
EDT Latitude Longitude Course Direction KTS MPH feet Rate Location/Type
Thu 08:41:53 PM 36.1011 -79.7214 302° West 169 194 8,100  Level Atlanta Center
Thu 08:42:53 PM 36.1094 -79.7775 280° West 169 194 9,200 1,100 Climbing Atlanta Center
Thu 08:43:53 PM 36.1178 -79.8414 279° West 181 208 10,300 1,150 Climbing Atlanta Center
Thu 08:44:00 PM 36.1121 -79.9228 282° West  Level FlightAware Approximate
Thu 08:44:53 PM 36.1283 -79.9050 282° West 186 214 11,500  Level Atlanta Center
Thu 08:45:00 PM 36.1208 -79.9998 276° West  Level FlightAware Approximate
Thu 08:45:53 PM 36.1367 -79.9639 280° West 191 220 12,600  Level Atlanta Center
Thu 08:46:00 PM 36.1273 -80.0772 276° West  Level FlightAware Approximate
Thu 08:46:53 PM 36.1450 -80.0303 279° West 196 226 13,600  Level Atlanta Center
Thu 08:47:00 PM 36.1353 -80.1540 302° West  Level FlightAware Approximate
Thu 08:47:53 PM 36.1556 -80.0967 281° West 202 232 14,700  Level Atlanta Center
Thu 08:48:53 PM 36.1639 -80.1656 279° West 202 232 15,800 1,050 Climbing Atlanta Center
Thu 08:49:53 PM 36.1747 -80.2369 281° West 202 232 16,800 900 Climbing Atlanta Center
Thu 08:50:53 PM 36.1828 -80.3036 279° West 202 232 17,600 750 Climbing Atlanta Center
Thu 08:51:53 PM 36.1933 -80.3725 281° West 202 232 18,300 750 Climbing Atlanta Center
Thu 08:52:53 PM 36.2017 -80.4392 279° West 202 232 19,100 700 Climbing Atlanta Center
Thu 08:53:53 PM 36.2117 -80.5028 281° West 202 232 19,700 450 Climbing Atlanta Center
Thu 08:54:53 PM 36.2244 -80.5872 281° West 215 247 20,000 150 Climbing Atlanta Center
Thu 08:55:53 PM 36.2350 -80.6667 279° West 232 267 20,000  Level Atlanta Center
Thu 08:56:53 PM 36.2478 -80.7486 281° West 238 274 20,000  Level Atlanta Center
Thu 08:57:53 PM 36.2583 -80.8331 279° West 243 280 20,000  Level Atlanta Center
Thu 08:58:53 PM 36.2708 -80.9150 281° West 248 285 20,000  Level Atlanta Center
Thu 08:59:53 PM 36.2814 -80.9994 279° West 248 285 20,000  Level Atlanta Center
Thu 09:00:53 PM 36.2939 -81.0867 280° West 258 297 20,000  Level Atlanta Center
Thu 09:01:53 PM 36.3042 -81.1636 279° West 258 297 20,000  Level Atlanta Center
Thu 09:02:53 PM 36.3164 -81.2508 280° West 258 297 20,000  Level Atlanta Center
Thu 09:03:53 PM 36.3267 -81.3328 279° West 258 297 20,000  Level Atlanta Center
Thu 09:04:53 PM 36.3369 -81.4175 279° West 258 297 20,000  Level Atlanta Center
Thu 09:05:53 PM 36.3492 -81.4997 280° West 252 290 20,000  Level Atlanta Center
Thu 09:06:53 PM 36.3592 -81.5817 279° West 245 282 20,000  Level Atlanta Center
Thu 09:07:53 PM 36.3692 -81.6667 278° West 245 282 20,000  Level Atlanta Center
Thu 09:08:53 PM 36.3811 -81.7539 280° West 245 282 20,000  Level Atlanta Center
Thu 09:09:53 PM 36.3911 -81.8361 279° West 240 276 20,000  Level Atlanta Center
Thu 09:10:53 PM 36.4008 -81.9211 278° West 240 276 20,000  Level Atlanta Center
Thu 09:11:53 PM 36.4106 -82.0033 278° West 240 276 20,000  Level Atlanta Center
Thu 09:12:53 PM 36.4203 -82.0856 278° West 240 276 20,000  Level Atlanta Center
Thu 09:13:53 PM 36.4297 -82.1681 278° West 245 282 20,000  Level Atlanta Center
Thu 09:14:53 PM 36.4394 -82.2503 278° West 245 282 20,000  Level Atlanta Center
Thu 09:15:53 PM 36.4511 -82.3378 279° West 245 282 20,000  Level Atlanta Center
Thu 09:16:53 PM 36.4606 -82.4203 278° West 245 282 20,000  Level Atlanta Center
Thu 09:17:53 PM 36.4700 -82.5000 278° West 245 282 20,000  Level Atlanta Center
Thu 09:18:53 PM 36.4814 -82.5825 280° West 245 282 20,000  Level Atlanta Center
Thu 09:19:53 PM 36.4906 -82.6650 278° West 245 282 20,000  Level Atlanta Center
Thu 09:20:53 PM 36.5000 -82.7475 278° West 238 274 20,000  Level Atlanta Center
Thu 09:21:53 PM 36.5092 -82.8300 278° West 238 274 20,000  Level Atlanta Center
Thu 09:22:53 PM 36.5203 -82.9097 280° West 238 274 20,000  Level Atlanta Center
Thu 09:23:53 PM 36.5292 -82.9897 278° West 238 274 20,000  Level Atlanta Center
Thu 09:25:58 PM 36.5497 -83.1528 279° West 238 274 20,000 97 Level Indianapolis Center
Thu 09:26:59 PM 36.5586 -83.2339 278° West 236 272 20,300 639 Climbing Indianapolis Center
Thu 09:28:00 PM 36.5678 -83.3036 279° West 211 243 21,300 829 Climbing Indianapolis Center
Thu 09:29:02 PM 36.5736 -83.3669 277° West 188 216 22,000 341 Climbing Indianapolis Center
Thu 09:30:03 PM 36.5806 -83.4314 278° West 187 215 22,000  Level Indianapolis Center
Thu 09:31:04 PM 36.5892 -83.5036 278° West 206 237 22,000  Level Indianapolis Center
Thu 09:32:05 PM 36.5981 -83.5775 279° West 213 245 22,000  Level Indianapolis Center
Thu 09:33:06 PM 36.6072 -83.6647 277° West 217 250 22,000  Level Indianapolis Center
Thu 09:34:07 PM 36.6150 -83.7386 277° West 214 246 22,000  Level Indianapolis Center
Thu 09:35:09 PM 36.6233 -83.8125 278° West 216 249 22,000  Level Indianapolis Center
Thu 09:36:10 PM 36.6322 -83.8889 278° West 220 253 22,000 49 Level Indianapolis Center
Thu 09:37:11 PM 36.6400 -83.9661 277° West 223 257 22,100  Climbing Indianapolis Center
Thu 09:38:12 PM 36.6492 -84.0431 278° West 224 258 22,000 -49 Descending Indianapolis Center
Thu 09:39:13 PM 36.6578 -84.1203 278° West 223 257 22,000  Level Indianapolis Center
Thu 09:40:14 PM 36.6653 -84.1958 277° West 221 254 22,000  Level Indianapolis Center
Thu 09:41:15 PM 36.6733 -84.2725 277° West 221 254 22,000  Level Indianapolis Center
Thu 09:42:17 PM 36.6811 -84.3489 277° West 222 255 22,000  Level Indianapolis Center
Thu 09:43:18 PM 36.6886 -84.4247 277° West 222 255 22,000 -148 Level Indianapolis Center
Thu 09:44:19 PM 36.6972 -84.5144 277° West 224 258 21,700 -443 Descending Indianapolis Center
Thu 09:45:20 PM 36.7053 -84.5861 278° West 238 274 21,100 -787 Descending Indianapolis Center
Thu 09:46:21 PM 36.7158 -84.6881 277° West 249 287 20,100 -885 Descending Indianapolis Center
Thu 09:47:22 PM 36.7239 -84.7722 277° West 245 282 19,300 -780 Descending Indianapolis Center
Thu 09:48:24 PM 36.7328 -84.8492 278° West 228 262 18,500 -829 Descending Indianapolis Center
Thu 09:49:25 PM 36.7397 -84.9228 277° West 217 250 17,600 -836 Descending Indianapolis Center
Thu 09:50:26 PM 36.7469 -84.9972 277° West 217 250 16,800 -787 Descending Indianapolis Center
Thu 09:51:27 PM 36.7544 -85.0725 277° West 218 251 16,000 -393 Descending Indianapolis Center
Thu 09:52:28 PM 36.7614 -85.1453 277° West 214 246 16,000 -49 Level Indianapolis Center
Thu 09:53:29 PM 36.7683 -85.2219 276° West 221 254 15,900 -49 Descending Indianapolis Center
Thu 09:54:31 PM 36.7758 -85.2981 277° West 224 258 15,900  Level Indianapolis Center
Thu 09:55:32 PM 36.7825 -85.3742 276° West 221 254 15,900 49 Level Indianapolis Center
Thu 09:56:33 PM 36.7925 -85.4661 278° West 225 259 16,000 49 Climbing Indianapolis Center
Thu 09:57:34 PM 36.7994 -85.5408 277° West 226 260 16,000  Level Indianapolis Center
Thu 09:58:35 PM 36.8067 -85.6186 277° West 225 259 16,000  Level Indianapolis Center
Thu 09:59:36 PM 36.8142 -85.6972 277° West 226 260 16,000 95 Level Indianapolis Center
Thu 10:00:41 PM 36.8225 -85.7797 277° West 233 268 16,200  Climbing Memphis Center
Thu 10:01:41 PM 36.8294 -85.8572 276° West 227 261 16,000 -100 Descending Memphis Center
Thu 10:02:41 PM 36.8364 -85.9344 276° West 232 267 16,000  Level Memphis Center
Thu 10:03:41 PM 36.8433 -86.0119 276° West 232 267 16,000  Level Memphis Center
Thu 10:04:41 PM 36.8500 -86.0867 276° West 232 267 16,000  Level Memphis Center
Thu 10:05:41 PM 36.8567 -86.1642 276° West 232 267 16,000  Level Memphis Center
Thu 10:06:41 PM 36.8639 -86.2494 276° West 232 267 16,000 -50 Level Memphis Center
Thu 10:07:41 PM 36.8706 -86.3242 276° West 232 267 15,900 -500 Descending Memphis Center
Thu 10:08:41 PM 36.8772 -86.4017 276° West 232 267 15,000 -850 Descending Memphis Center
Thu 10:09:41 PM 36.8858 -86.4817 278° West 232 267 14,200 -800 Descending Memphis Center
Thu 10:10:41 PM 36.8925 -86.5619 276° West 232 267 13,400 -800 Descending Memphis Center
Thu 10:11:41 PM 36.8992 -86.6469 276° West 238 274 12,600 -700 Descending Memphis Center
Thu 10:12:41 PM 36.9058 -86.7297 276° West 238 274 12,000 -350 Descending Memphis Center
Thu 10:13:41 PM 36.9122 -86.8047 276° West 229 264 11,900 -50 Descending Memphis Center
Thu 10:14:41 PM 36.9186 -86.8797 276° West 224 258 11,900  Level Memphis Center
Thu 10:15:41 PM 36.9247 -86.9547 276° West 224 258 11,900  Level Memphis Center
Thu 10:16:41 PM 36.9308 -87.0272 276° West 219 252 11,900  Level Memphis Center
Thu 10:17:41 PM 36.9619 -87.1011 298° West 225 259 11,900  Level Memphis Center
Thu 10:18:41 PM 36.9969 -87.1647 305° West 236 272 11,900  Level Memphis Center
Thu 10:19:41 PM 37.0342 -87.2358 303° West 246 283 11,900  Level Memphis Center
Thu 10:20:41 PM 37.0694 -87.3047 303° West 245 282 11,900  Level Memphis Center
Thu 10:21:41 PM 37.1064 -87.3736 304° West 245 282 11,900  Level Memphis Center
Thu 10:22:41 PM 37.1433 -87.4425 304° West 245 282 11,900  Level Memphis Center
Thu 10:23:41 PM 37.1825 -87.5114 306° West 245 282 11,900  Level Memphis Center
Thu 10:24:41 PM 37.2217 -87.5803 306° West 240 276 11,900 50 Level Memphis Center
Thu 10:25:41 PM 37.2628 -87.6517 306° West 235 270 12,000  Climbing Memphis Center
Thu 10:26:41 PM 37.2997 -87.7208 304° West 228 262 11,900 -50 Descending Memphis Center
Thu 10:27:41 PM 37.3344 -87.7850 304° West 245 282 11,900  Level Memphis Center
Thu 10:28:41 PM 37.3628 -87.8544 297° West 245 282 11,900  Level Memphis Center
Thu 10:29:41 PM 37.3933 -87.9267 298° West 240 276 11,900  Level Memphis Center
Thu 10:30:41 PM 37.4219 -87.9936 298° West 233 268 11,900  Level Memphis Center
Thu 10:31:41 PM 37.4564 -88.0658 301° West 233 268 11,900 50 Level Memphis Center
Thu 10:32:41 PM 37.4869 -88.1303 301° West 228 262 12,000  Climbing Memphis Center
Thu 10:33:41 PM 37.4942 -88.1900 279° West 205 236 11,900 -50 Descending Memphis Center
Thu 10:34:41 PM 37.4994 -88.2578 276° West 192 221 11,900  Level Memphis Center
Thu 10:35:41 PM 37.5047 -88.3153 277° West 185 213 11,900 -300 Level Memphis Center
Thu 10:36:41 PM 37.4886 -88.3628 247° West 164 189 11,300 -500 Descending Memphis Center
Thu 10:37:41 PM 37.4558 -88.3897 213° Southwest 143 165 10,900 -550 Descending Memphis Center
Thu 10:38:41 PM 37.4189 -88.4194 213° Southwest 148 170 10,200 -950 Descending Memphis Center
Thu 10:39:41 PM 37.3900 -88.4436 214° Southwest 148 170 9,000 -1,150 Descending Memphis Center
Thu 10:40:41 PM 37.3694 -88.4650 220° Southwest 125 144 7,900 -1,100 Descending Memphis Center
Thu 10:41:41 PM 37.3447 -88.4864 215° Southwest 113 130 6,800 -1,150 Descending Memphis Center
Thu 10:42:41 PM 37.3181 -88.5106 216° Southwest 113 130 5,600 -1,200 Descending Memphis Center
Thu 10:43:41 PM 37.2872 -88.5347 212° Southwest 125 144 4,400 -1,200 Descending Memphis Center
Thu 10:44:41 PM 37.2583 -88.5614 216° Southwest 125 144 3,200 -750 Descending Memphis Center
Thu 10:45:41 PM 37.2256 -88.5881 213° Southwest 130 150 2,900 -150 Descending Memphis Center
Thu 10:46:41 PM 37.1925 -88.6175 215° Southwest 136 157 2,900 -250 Level Memphis Center
Thu 10:47:41 PM 37.1619 -88.6572 226° Southwest 154 177 2,400 -200 Descending Memphis Center
Thu 10:48:41 PM 37.1292 -88.6969 224° Southwest 160 184 2,500 -300 Climbing Memphis Center
Thu 10:49:41 PM 37.0983 -88.7342 224° Southwest 160 184 1,800 -700 Descending Memphis Center
Thu 10:50:41 PM 37.0694 -88.7606 216° Southwest 160 184 1,100 -300 Descending Memphis Center
Thu 10:51:41 PM 37.0339 -88.7508 168° South 124 143 1,200 5,450 Climbing Memphis Center
Thu 10:52:41 PM 37.0028 -88.7594 192° South 124 143 12,000 10,800 Climbing Memphis Center

Login

Don't have an account? Register now (free) for customized features, flight alerts, and more!